createdAt,value
2017-04-03T00:00:25.773Z,61.16
2017-04-03T00:02:43.722Z,61.45
2017-04-03T00:03:24.300Z,61.55
2017-04-03T00:04:04.886Z,61.25
2017-04-03T00:04:45.468Z,61.16
2017-04-03T00:05:26.057Z,61.25
2017-04-03T00:06:06.635Z,61.35
2017-04-03T00:06:47.230Z,61.25
2017-04-03T00:07:27.798Z,61.55
2017-04-03T00:08:08.388Z,61.25
2017-04-03T00:08:48.968Z,61.65
2017-04-03T00:09:29.549Z,61.16
2017-04-03T00:10:10.131Z,61.45
2017-04-03T00:12:07.842Z,61.74
2017-04-03T00:12:48.430Z,61.65
2017-04-03T00:13:29.013Z,61.83
2017-04-03T00:14:09.599Z,61.74
2017-04-03T00:14:50.181Z,61.83
2017-04-03T00:15:30.767Z,61.65
2017-04-03T00:16:11.347Z,61.55
2017-04-03T00:16:51.918Z,61.55
2017-04-03T00:17:32.525Z,61.74
2017-04-03T00:18:13.083Z,61.83
2017-04-03T00:18:53.659Z,61.83
2017-04-03T00:19:34.241Z,61.74
2017-04-03T00:20:14.830Z,61.65
2017-04-03T00:20:55.405Z,61.45
2017-04-03T00:21:35.987Z,61.55
2017-04-03T00:22:16.566Z,61.74
2017-04-03T00:22:57.134Z,61.65
2017-04-03T00:23:37.715Z,61.65
2017-04-03T00:24:18.298Z,61.55
2017-04-03T00:24:58.886Z,61.45
2017-04-03T00:25:39.463Z,61.16
2017-04-03T00:26:20.043Z,61.16
2017-04-03T00:27:00.628Z,61.35
2017-04-03T00:27:41.208Z,61.45
2017-04-03T00:28:21.787Z,61.35
2017-04-03T00:29:02.378Z,61.45
2017-04-03T00:29:42.963Z,61.25
2017-04-03T00:30:23.548Z,61.35
2017-04-03T00:31:04.132Z,61.35
2017-04-03T00:31:44.717Z,61.35
2017-04-03T00:32:40.085Z,61.55
2017-04-03T00:33:20.675Z,61.35
2017-04-03T00:34:01.241Z,61.35
2017-04-03T00:34:41.819Z,61.35
2017-04-03T00:35:22.403Z,61.65
2017-04-03T00:36:02.987Z,61.45
2017-04-03T00:36:43.565Z,61.35
2017-04-03T00:37:24.149Z,61.45
2017-04-03T00:38:04.723Z,61.25
2017-04-03T00:38:45.303Z,61.45
2017-04-03T00:39:25.887Z,61.45
2017-04-03T00:40:06.477Z,61.07
2017-04-03T00:40:47.046Z,61.16
2017-04-03T00:41:27.629Z,61.25
2017-04-03T00:42:08.208Z,61.55
2017-04-03T00:42:48.797Z,61.55
2017-04-03T00:43:29.379Z,61.45
2017-04-03T00:44:09.963Z,61.55
2017-04-03T00:44:50.546Z,61.65
2017-04-03T00:45:31.132Z,61.55
2017-04-03T00:46:11.711Z,61.65
2017-04-03T00:46:52.294Z,61.83
2017-04-03T00:47:32.870Z,61.65
2017-04-03T00:48:13.459Z,61.74
2017-04-03T00:48:54.043Z,61.65
2017-04-03T00:49:49.455Z,62.03
2017-04-03T00:50:30.040Z,62.03
2017-04-03T00:51:10.624Z,62.32
2017-04-03T00:51:51.213Z,62.22
2017-04-03T00:52:31.824Z,62.12
2017-04-03T00:53:12.390Z,62.03
2017-04-03T00:53:52.963Z,61.83
2017-04-03T00:54:33.550Z,62.32
2017-04-03T00:55:14.129Z,62.22
2017-04-03T00:55:54.726Z,62.22
2017-04-03T00:56:35.297Z,62.12
2017-04-03T00:58:27.905Z,62.22
2017-04-03T00:59:08.487Z,62.03
2017-04-03T00:59:49.074Z,62.03
2017-04-03T01:00:29.656Z,62.12
2017-04-03T01:01:10.240Z,62.22
2017-04-03T01:01:50.821Z,61.83
2017-04-03T01:02:31.403Z,62.03
2017-04-03T01:03:11.984Z,62.32
2017-04-03T01:03:52.567Z,61.83
2017-04-03T01:04:33.154Z,61.83
2017-04-03T01:05:13.741Z,62.12
2017-04-03T01:05:54.326Z,62.32
2017-04-03T01:06:34.899Z,62.22
2017-04-03T01:07:15.480Z,62.22
2017-04-03T01:07:56.064Z,62.22
2017-04-03T01:08:36.646Z,62.32
2017-04-03T01:09:17.234Z,62.03
2017-04-03T01:09:57.794Z,62.32
2017-04-03T01:10:38.378Z,61.93
2017-04-03T01:11:18.959Z,62.22
2017-04-03T01:11:59.539Z,62.03
2017-04-03T01:12:40.118Z,62.41
2017-04-03T01:13:20.689Z,62.41
2017-04-03T01:14:01.280Z,62.51
2017-04-03T01:14:41.864Z,62.41
2017-04-03T01:15:22.446Z,62.41
2017-04-03T01:16:03.030Z,62.32
2017-04-03T01:16:43.615Z,62.32
2017-04-03T01:17:24.200Z,62.22
2017-04-03T01:18:04.785Z,62.51
2017-04-03T01:18:45.372Z,62.6
2017-04-03T01:19:25.944Z,62.8
2017-04-03T01:20:06.531Z,62.6
2017-04-03T01:20:47.118Z,62.6
2017-04-03T01:21:42.510Z,62.9
2017-04-03T01:22:23.100Z,63.09
2017-04-03T01:23:18.460Z,62.8
2017-04-03T01:23:59.039Z,62.99
2017-04-03T01:24:39.628Z,63.09
2017-04-03T01:25:20.210Z,62.6
2017-04-03T01:26:00.789Z,62.99
2017-04-03T01:26:41.376Z,62.99
2017-04-03T01:27:21.955Z,63.09
2017-04-03T01:28:02.541Z,62.9
2017-04-03T01:28:43.119Z,62.99
2017-04-03T01:29:23.778Z,62.99
2017-04-03T01:30:04.367Z,62.99
2017-04-03T01:30:44.951Z,62.99
2017-04-03T01:31:25.529Z,62.99
2017-04-03T01:32:06.115Z,62.99
2017-04-03T01:32:46.701Z,62.99
2017-04-03T01:33:27.284Z,62.99
2017-04-03T01:34:07.859Z,62.99
2017-04-03T01:34:48.444Z,62.6
2017-04-03T01:35:29.030Z,62.7
2017-04-03T01:36:09.617Z,62.32
2017-04-03T01:36:50.198Z,62.51
2017-04-03T01:37:30.902Z,62.8
2017-04-03T01:38:11.486Z,62.8
2017-04-03T01:38:52.073Z,62.7
2017-04-03T01:39:32.642Z,62.6
2017-04-03T01:40:13.238Z,63.09
2017-04-03T01:40:53.819Z,62.8
2017-04-03T01:41:34.405Z,62.8
2017-04-03T01:42:14.986Z,62.8
2017-04-03T01:42:55.571Z,62.6
2017-04-03T01:43:36.136Z,62.51
2017-04-03T01:44:16.718Z,62.99
2017-04-03T01:44:57.294Z,62.99
2017-04-03T01:45:37.873Z,62.6
2017-04-03T01:46:18.461Z,62.99
2017-04-03T01:46:59.050Z,63.09
2017-04-03T01:47:39.620Z,62.8
2017-04-03T01:48:20.195Z,62.8
2017-04-03T01:49:00.778Z,62.41
2017-04-03T01:49:41.367Z,62.51
2017-04-03T01:50:21.953Z,62.32
2017-04-03T01:51:02.531Z,62.8
2017-04-03T01:51:43.116Z,62.8
2017-04-03T01:52:23.702Z,62.9
2017-04-03T01:53:04.288Z,62.9
2017-04-03T01:53:44.868Z,62.9
2017-04-03T01:54:25.448Z,62.6
2017-04-03T01:55:06.027Z,62.6
2017-04-03T01:55:46.617Z,62.9
2017-04-03T01:56:27.193Z,62.7
2017-04-03T01:57:07.780Z,62.51
2017-04-03T01:57:48.365Z,62.6
2017-04-03T01:58:28.952Z,62.8
2017-04-03T01:59:09.538Z,62.41
2017-04-03T01:59:50.125Z,62.41
2017-04-03T02:00:30.708Z,62.51
2017-04-03T02:01:11.302Z,62.51
2017-04-03T02:01:51.880Z,62.32
2017-04-03T02:02:32.467Z,62.32
2017-04-03T02:03:13.046Z,62.51
2017-04-03T02:03:53.634Z,62.41
2017-04-03T02:04:34.212Z,62.51
2017-04-03T02:05:14.795Z,62.32
2017-04-03T02:05:55.381Z,62.6
2017-04-03T02:06:35.961Z,62.32
2017-04-03T02:07:16.544Z,62.32
2017-04-03T02:07:57.120Z,62.6
2017-04-03T02:08:37.706Z,62.32
2017-04-03T02:09:18.289Z,62.6
2017-04-03T02:09:58.880Z,62.6
2017-04-03T02:10:39.456Z,62.41
2017-04-03T02:11:20.043Z,62.51
2017-04-03T02:12:00.620Z,62.41
2017-04-03T02:12:41.208Z,62.41
2017-04-03T02:13:21.793Z,62.51
2017-04-03T02:14:02.374Z,62.8
2017-04-03T02:14:42.963Z,62.8
2017-04-03T02:15:23.563Z,62.99
2017-04-03T02:16:04.132Z,62.99
2017-04-03T02:16:44.704Z,62.7
2017-04-03T02:17:25.290Z,63.09
2017-04-03T02:18:05.871Z,63.09
2017-04-03T02:18:46.458Z,62.7
2017-04-03T02:19:27.040Z,62.8
2017-04-03T02:20:07.629Z,63.09
2017-04-03T02:20:48.214Z,62.6
2017-04-03T02:21:28.798Z,62.8
2017-04-03T02:22:09.377Z,62.8
2017-04-03T02:22:49.962Z,62.7
2017-04-03T02:23:30.545Z,62.99
2017-04-03T02:24:11.124Z,62.6
2017-04-03T02:24:51.708Z,62.9
2017-04-03T02:25:32.291Z,62.8
2017-04-03T02:26:12.860Z,62.9
2017-04-03T02:26:53.450Z,62.8
2017-04-03T02:27:34.036Z,62.9
2017-04-03T02:28:14.619Z,62.9
2017-04-03T02:28:55.209Z,62.8
2017-04-03T02:29:35.797Z,63.09
2017-04-03T02:30:16.379Z,62.9
2017-04-03T02:32:08.993Z,62.32
2017-04-03T02:32:49.576Z,63.28
2017-04-03T02:33:30.159Z,62.99
2017-04-03T02:34:10.742Z,62.9
2017-04-03T02:34:51.315Z,62.99
2017-04-03T02:35:31.892Z,62.9
2017-04-03T02:36:12.466Z,63.09
2017-04-03T02:36:53.653Z,62.99
2017-04-03T02:37:34.045Z,62.8
2017-04-03T02:38:14.627Z,62.7
2017-04-03T02:38:55.210Z,62.7
2017-04-03T02:39:35.789Z,62.6
2017-04-03T02:40:16.379Z,62.6
2017-04-03T02:43:26.022Z,62.7
2017-04-03T02:45:43.968Z,62.7
2017-04-03T02:46:24.580Z,62.8
2017-04-03T02:47:05.122Z,62.6
2017-04-03T02:47:45.705Z,62.51
2017-04-03T02:48:26.286Z,62.6
2017-04-03T02:49:06.863Z,62.6
2017-04-03T02:49:47.444Z,62.9
2017-04-03T02:50:28.018Z,62.6
2017-04-03T02:51:08.603Z,62.6
2017-04-03T02:51:49.186Z,62.7
2017-04-03T02:52:29.762Z,62.9
2017-04-03T02:53:10.348Z,62.7
2017-04-03T02:53:50.912Z,62.6
2017-04-03T02:54:31.502Z,62.9
2017-04-03T02:55:12.081Z,62.99
2017-04-03T02:57:30.021Z,62.8
2017-04-03T02:58:10.582Z,62.9
2017-04-03T02:58:51.166Z,62.99
2017-04-03T02:59:31.747Z,62.7
2017-04-03T03:00:12.338Z,63.28
2017-04-03T03:00:52.897Z,62.9
2017-04-03T03:01:33.487Z,62.9
2017-04-03T03:02:14.078Z,62.9
2017-04-03T03:02:54.647Z,63.09
2017-04-03T03:03:35.234Z,62.99
2017-04-03T03:04:15.814Z,62.9
2017-04-03T03:04:56.396Z,62.99
2017-04-03T03:05:36.975Z,62.51
2017-04-03T03:06:17.553Z,63.09
2017-04-03T03:06:58.134Z,63.09
2017-04-03T03:07:38.718Z,63.09
2017-04-03T03:08:19.296Z,63.18
2017-04-03T03:08:59.877Z,62.41
2017-04-03T03:11:17.830Z,62.9
2017-04-03T03:11:58.412Z,62.9
2017-04-03T03:12:38.996Z,63.18
2017-04-03T03:13:19.574Z,62.99
2017-04-03T03:14:00.158Z,62.99
2017-04-03T03:14:40.734Z,62.41
2017-04-03T03:15:21.315Z,62.22
2017-04-03T03:16:01.901Z,61.45
2017-04-03T03:16:42.487Z,61.45
2017-04-03T03:17:23.067Z,60
2017-04-03T03:18:03.652Z,59.72
2017-04-03T03:18:44.232Z,60.1
2017-04-03T03:19:24.809Z,59.91
2017-04-03T03:20:05.408Z,59.91
2017-04-03T03:20:45.994Z,60
2017-04-03T03:21:26.980Z,60.2
2017-04-03T03:22:07.941Z,59.91
2017-04-03T03:22:48.748Z,60.2
2017-04-03T03:23:29.819Z,60
2017-04-03T03:24:10.730Z,60.3
2017-04-03T03:24:51.569Z,60.3
2017-04-03T03:25:32.340Z,60.68
2017-04-03T03:26:12.923Z,60.58
2017-04-03T03:26:53.763Z,60.97
2017-04-03T03:27:34.633Z,60.87
2017-04-03T03:28:15.364Z,60.77
2017-04-03T03:28:56.120Z,60.77
2017-04-03T03:29:36.782Z,60.97
2017-04-03T03:30:17.583Z,60.68
2017-04-03T03:30:58.766Z,60.97
2017-04-03T03:31:39.335Z,61.07
2017-04-03T03:32:20.105Z,60.97
2017-04-03T03:33:01.067Z,61.25
2017-04-03T03:33:41.984Z,61.07
2017-04-03T03:34:22.907Z,61.25
2017-04-03T03:35:03.614Z,61.16
2017-04-03T03:35:44.342Z,61.35
2017-04-03T03:36:25.273Z,61.55
2017-04-03T03:37:06.218Z,61.35
2017-04-03T03:37:47.180Z,61.55
2017-04-03T03:38:28.125Z,61.45
2017-04-03T03:39:08.679Z,61.65
2017-04-03T03:39:49.509Z,61.74
2017-04-03T03:40:30.090Z,61.45
2017-04-03T03:41:10.746Z,61.83
2017-04-03T03:41:51.323Z,61.74
2017-04-03T03:42:31.945Z,61.65
2017-04-03T03:43:12.492Z,61.65
2017-04-03T03:43:53.062Z,61.74
2017-04-03T03:44:33.630Z,61.65
2017-04-03T03:45:14.224Z,61.35
2017-04-03T03:45:54.804Z,61.55
2017-04-03T03:46:35.380Z,61.45
2017-04-03T03:47:15.960Z,61.45
2017-04-03T03:47:56.530Z,61.93
2017-04-03T03:48:37.114Z,62.03
2017-04-03T03:49:17.705Z,59.23
2017-04-03T03:49:58.282Z,57.98
2017-04-03T03:50:38.855Z,57.09
2017-04-03T03:51:19.450Z,57.47
2017-04-03T03:52:00.035Z,58.44
2017-04-03T03:52:40.613Z,57.95
2017-04-03T03:53:21.187Z,56.99
2017-04-03T03:54:01.806Z,55.13
2017-04-03T03:54:42.360Z,55.16
2017-04-03T03:55:22.938Z,54.17
2017-04-03T03:56:03.512Z,54.65
2017-04-03T03:56:44.093Z,54.75
2017-04-03T03:57:24.675Z,54.17
2017-04-03T03:58:05.256Z,55.52
2017-04-03T03:58:45.836Z,53.31
2017-04-03T03:59:26.425Z,54.34
2017-04-03T04:00:07.001Z,53.96
2017-04-03T04:00:47.587Z,53.47
2017-04-03T04:01:28.162Z,55.2
2017-04-03T04:02:08.753Z,54.89
2017-04-03T04:02:49.343Z,53.35
2017-04-03T04:03:29.925Z,54.31
2017-04-03T04:04:10.498Z,53.45
2017-04-03T04:04:51.076Z,54.69
2017-04-03T04:05:31.657Z,56.33
2017-04-03T04:06:12.239Z,56.91
2017-04-03T04:06:52.820Z,55.56
2017-04-03T04:07:33.406Z,55.91
2017-04-03T04:08:13.989Z,55.63
2017-04-03T04:08:54.559Z,54.47
2017-04-03T04:09:35.150Z,55.44
2017-04-03T04:10:15.727Z,55.82
2017-04-03T04:10:56.305Z,55.24
2017-04-03T04:11:36.882Z,55.53
2017-04-03T04:12:17.470Z,54.67
2017-04-03T04:12:58.054Z,54.77
2017-04-03T04:13:38.628Z,55.05
2017-04-03T04:14:19.211Z,54.74
2017-04-03T04:14:59.788Z,55.32
2017-04-03T04:15:40.366Z,54.64
2017-04-03T04:16:20.952Z,54.83
2017-04-03T04:17:01.537Z,54.55
2017-04-03T04:17:42.122Z,54.45
2017-04-03T04:18:22.735Z,54.83
2017-04-03T04:19:03.280Z,55.32
2017-04-03T04:19:43.860Z,54.74
2017-04-03T04:20:24.442Z,55.47
2017-04-03T04:21:05.022Z,55.29
2017-04-03T04:21:45.607Z,55.57
2017-04-03T04:22:26.190Z,55.19
2017-04-03T04:23:06.771Z,56.15
2017-04-03T04:23:47.351Z,56.05
2017-04-03T04:24:27.915Z,56.34
2017-04-03T04:25:08.484Z,55.86
2017-04-03T04:25:49.069Z,56.63
2017-04-03T04:26:29.661Z,56.63
2017-04-03T04:27:10.227Z,56.34
2017-04-03T04:27:50.811Z,56.92
2017-04-03T04:28:31.397Z,56.82
2017-04-03T04:30:29.100Z,56.44
2017-04-03T04:31:09.684Z,57.01
2017-04-03T04:31:50.262Z,56.89
2017-04-03T04:32:30.834Z,56.89
2017-04-03T04:33:11.419Z,56.41
2017-04-03T04:33:52.007Z,56.12
2017-04-03T04:34:32.573Z,56.41
2017-04-03T04:35:13.152Z,56.31
2017-04-03T04:35:53.734Z,56.6
2017-04-03T04:36:34.316Z,56.31
2017-04-03T04:37:14.886Z,57.28
2017-04-03T04:37:55.471Z,56.89
2017-04-03T04:38:36.045Z,56.79
2017-04-03T04:39:16.606Z,57.18
2017-04-03T04:39:57.193Z,56.79
2017-04-03T04:40:37.797Z,57.56
2017-04-03T04:41:18.381Z,56.6
2017-04-03T04:41:58.953Z,56.98
2017-04-03T04:42:39.539Z,57.18
2017-04-03T04:43:20.112Z,57.08
2017-04-03T04:44:00.674Z,56.22
2017-04-03T04:44:41.255Z,56.51
2017-04-03T04:46:33.861Z,56.7
2017-04-03T04:47:14.439Z,57.18
2017-04-03T04:47:55.005Z,56.6
2017-04-03T04:48:35.585Z,56.7
2017-04-03T04:49:16.173Z,56.7
2017-04-03T04:49:56.752Z,56.6
2017-04-03T04:50:37.334Z,56.7
2017-04-03T04:51:17.912Z,57.28
2017-04-03T04:51:58.494Z,57.08
2017-04-03T04:52:39.068Z,56.89
2017-04-03T04:53:19.654Z,56.6
2017-04-03T04:54:00.233Z,56.31
2017-04-03T04:54:40.812Z,56.41
2017-04-03T04:55:21.393Z,56.79
2017-04-03T04:56:01.977Z,57.28
2017-04-03T04:56:42.561Z,56.6
2017-04-03T04:57:23.128Z,56.98
2017-04-03T04:59:20.830Z,57.28
2017-04-03T05:00:01.409Z,57.37
2017-04-03T05:00:41.996Z,57.37
2017-04-03T05:01:22.579Z,57.28
2017-04-03T05:02:03.173Z,57.56
2017-04-03T05:02:43.742Z,57.56
2017-04-03T05:03:24.314Z,57.28
2017-04-03T05:04:04.881Z,57.56
2017-04-03T05:04:45.462Z,57.18
2017-04-03T05:05:26.040Z,57.28
2017-04-03T05:06:06.613Z,57.37
2017-04-03T05:06:47.190Z,56.7
2017-04-03T05:07:27.765Z,56.89
2017-04-03T05:08:08.342Z,57.08
2017-04-03T05:08:48.914Z,57.18
2017-04-03T05:09:29.501Z,57.46
2017-04-03T05:10:10.068Z,57.18
2017-04-03T05:10:50.650Z,56.7
2017-04-03T05:11:31.224Z,56.7
2017-04-03T05:12:11.803Z,56.7
2017-04-03T05:12:52.385Z,56.22
2017-04-03T05:13:32.964Z,56.41
2017-04-03T05:14:13.552Z,56.31
2017-04-03T05:14:54.127Z,56.41
2017-04-03T05:15:34.709Z,56.12
2017-04-03T05:16:15.287Z,56.44
2017-04-03T05:16:55.869Z,55.67
2017-04-03T05:17:36.448Z,55.86
2017-04-03T05:18:17.034Z,55.67
2017-04-03T05:18:57.602Z,55.77
2017-04-03T05:19:38.186Z,55.19
2017-04-03T05:20:18.755Z,55.38
2017-04-03T05:20:59.329Z,55.29
2017-04-03T05:21:39.920Z,55.19
2017-04-03T05:22:20.498Z,55.29
2017-04-03T05:23:01.084Z,55.38
2017-04-03T05:23:41.660Z,54.8
2017-04-03T05:24:22.246Z,54.61
2017-04-03T05:25:02.820Z,54.52
2017-04-03T05:25:43.398Z,54.64
2017-04-03T05:26:23.979Z,54.45
2017-04-03T05:27:04.552Z,54.06
2017-04-03T05:27:45.133Z,53.87
2017-04-03T05:28:25.712Z,53.78
2017-04-03T05:29:06.298Z,53.58
2017-04-03T05:29:46.878Z,53.68
2017-04-03T05:30:27.455Z,53.49
2017-04-03T05:32:20.061Z,52.81
2017-04-03T05:33:00.638Z,53.01
2017-04-03T05:33:41.207Z,52.53
2017-04-03T05:34:21.788Z,52.46
2017-04-03T05:35:02.373Z,52.36
2017-04-03T05:35:42.941Z,52.17
2017-04-03T05:36:23.509Z,51.98
2017-04-03T05:37:04.086Z,52.08
2017-04-03T05:37:44.665Z,52.08
2017-04-03T05:38:25.238Z,51.4
2017-04-03T05:39:05.812Z,51.31
2017-04-03T05:39:46.386Z,51.21
2017-04-03T05:40:26.971Z,51.59
2017-04-03T05:41:07.539Z,50.82
2017-04-03T05:43:00.142Z,50.92
2017-04-03T05:43:40.723Z,50.54
2017-04-03T05:44:21.304Z,50.05
2017-04-03T05:45:16.646Z,50.56
2017-04-03T05:45:57.219Z,50.56
2017-04-03T05:46:37.791Z,50.37
2017-04-03T05:47:18.370Z,49.89
2017-04-03T05:47:58.948Z,50.08
2017-04-03T05:48:39.528Z,50.27
2017-04-03T05:49:20.109Z,50.08
2017-04-03T05:50:00.689Z,50.27
2017-04-03T05:50:41.276Z,50.27
2017-04-03T05:51:21.852Z,50.27
2017-04-03T05:52:02.430Z,50.27
2017-04-03T05:52:43.011Z,50.46
2017-04-03T05:53:23.582Z,50.08
2017-04-03T05:54:04.165Z,49.79
2017-04-03T05:54:44.744Z,49.99
2017-04-03T05:55:25.328Z,49.69
2017-04-03T05:56:05.906Z,49.31
2017-04-03T05:56:46.501Z,49.41
2017-04-03T05:57:27.082Z,49.12
2017-04-03T05:58:07.663Z,49.31
2017-04-03T05:58:48.249Z,49.24
2017-04-03T05:59:28.814Z,49.02
2017-04-03T06:00:09.400Z,48.93
2017-04-03T06:00:49.983Z,48.66
2017-04-03T06:01:30.568Z,48.85
2017-04-03T06:02:11.145Z,48.38
2017-04-03T06:02:51.733Z,47.8
2017-04-03T06:03:32.320Z,47.99
2017-04-03T06:04:12.895Z,47.8
2017-04-03T06:04:53.480Z,47.89
2017-04-03T06:05:34.066Z,47.92
2017-04-03T06:06:14.645Z,47.63
2017-04-03T06:06:55.233Z,47.63
2017-04-03T06:07:35.814Z,47.24
2017-04-03T06:08:16.386Z,47.05
2017-04-03T06:08:56.964Z,47.34
2017-04-03T06:09:37.542Z,47.7
2017-04-03T06:10:18.129Z,47.24
2017-04-03T06:10:58.704Z,47.53
2017-04-03T06:11:39.271Z,47.31
2017-04-03T06:12:19.860Z,47.53
2017-04-03T06:13:00.442Z,47.22
2017-04-03T06:13:41.019Z,47.44
2017-04-03T06:14:21.598Z,47.61
2017-04-03T06:15:02.180Z,47.99
2017-04-03T06:15:42.766Z,47.8
2017-04-03T06:16:23.355Z,47.99
2017-04-03T06:17:03.930Z,47.8
2017-04-03T06:17:44.514Z,47.7
2017-04-03T06:18:25.096Z,47.8
2017-04-03T06:19:05.683Z,47.61
2017-04-03T06:19:46.259Z,47.8
2017-04-03T06:20:41.654Z,48.38
2017-04-03T06:21:22.237Z,47.7
2017-04-03T06:22:02.817Z,47.8
2017-04-03T06:22:43.406Z,48.18
2017-04-03T06:23:23.971Z,48.47
2017-04-03T06:24:04.553Z,48.57
2017-04-03T06:24:45.138Z,48.47
2017-04-03T06:25:25.728Z,48.47
2017-04-03T06:26:06.316Z,48.57
2017-04-03T06:26:46.884Z,48.38
2017-04-03T06:27:27.456Z,48.47
2017-04-03T06:28:08.045Z,48.38
2017-04-03T06:28:48.625Z,48.28
2017-04-03T06:29:29.204Z,48.66
2017-04-03T06:30:09.790Z,48.76
2017-04-03T06:30:50.369Z,48.85
2017-04-03T06:31:30.956Z,48.18
2017-04-03T06:32:11.537Z,48.47
2017-04-03T06:32:52.094Z,48.95
2017-04-03T06:33:32.674Z,48.85
2017-04-03T06:34:13.265Z,48.76
2017-04-03T06:34:53.855Z,48.47
2017-04-03T06:35:34.428Z,48.66
2017-04-03T06:36:15.009Z,49.24
2017-04-03T06:36:55.588Z,48.66
2017-04-03T06:37:36.163Z,48.93
2017-04-03T06:38:16.749Z,48.76
2017-04-03T06:38:57.324Z,48.47
2017-04-03T06:39:37.907Z,48.95
2017-04-03T06:40:18.488Z,48.66
2017-04-03T06:40:59.065Z,48.83
2017-04-03T06:41:39.642Z,48.64
2017-04-03T06:42:20.226Z,48.83
2017-04-03T06:43:00.805Z,48.95
2017-04-03T06:43:41.379Z,48.85
2017-04-03T06:44:21.953Z,48.66
2017-04-03T06:45:02.533Z,48.57
2017-04-03T06:45:43.106Z,48.66
2017-04-03T06:46:23.692Z,48.85
2017-04-03T06:47:04.270Z,48.57
2017-04-03T06:47:44.853Z,48.47
2017-04-03T06:48:25.438Z,48.38
2017-04-03T06:49:06.011Z,48.66
2017-04-03T06:49:46.599Z,47.89
2017-04-03T06:50:27.178Z,47.82
2017-04-03T06:51:07.757Z,47.72
2017-04-03T06:51:48.332Z,47.53
2017-04-03T06:52:28.917Z,47.15
2017-04-03T06:53:09.501Z,47.15
2017-04-03T06:55:02.106Z,46.31
2017-04-03T06:55:42.683Z,46.11
2017-04-03T06:56:23.261Z,45.83
2017-04-03T06:57:03.841Z,45.36
2017-04-03T06:57:44.427Z,44.81
2017-04-03T06:58:25.002Z,44.32
2017-04-03T06:59:05.577Z,43.75
2017-04-03T06:59:46.166Z,42.54
2017-04-03T07:00:26.740Z,41.77
2017-04-03T07:01:07.323Z,40.92
2017-04-03T07:01:47.908Z,39.41
2017-04-03T07:02:28.491Z,38.74
2017-04-03T07:03:09.072Z,37.42
2017-04-03T07:03:49.654Z,36.57
2017-04-03T07:04:30.277Z,35.91
2017-04-03T07:05:10.823Z,35.23
2017-04-03T07:05:51.391Z,34.47
2017-04-03T07:06:31.974Z,33.62
2017-04-03T07:07:12.556Z,32.76
2017-04-03T07:07:53.135Z,32
2017-04-03T07:08:33.716Z,31.34
2017-04-03T07:09:14.303Z,30.68
2017-04-03T07:09:54.881Z,30
2017-04-03T07:10:35.467Z,29.43
2017-04-03T07:11:16.051Z,28.66
2017-04-03T07:11:56.635Z,28.49
2017-04-03T07:12:37.225Z,27.53
2017-04-03T07:13:17.809Z,27.34
2017-04-03T07:13:58.391Z,26.57
2017-04-03T07:14:38.977Z,26.19
2017-04-03T07:15:34.287Z,25.81
2017-04-03T07:16:14.873Z,25.34
2017-04-03T07:16:55.453Z,24.95
2017-04-03T07:17:36.039Z,25.15
2017-04-03T07:18:16.618Z,25.05
2017-04-03T07:18:57.201Z,25.04
2017-04-03T07:19:37.793Z,25.52
2017-04-03T07:20:18.378Z,26.29
2017-04-03T07:20:58.964Z,26.87
2017-04-03T07:21:39.548Z,27.34
2017-04-03T07:22:20.127Z,27.43
2017-04-03T07:23:00.704Z,28.02
2017-04-03T07:23:41.292Z,28
2017-04-03T07:24:21.877Z,28.39
2017-04-03T07:25:02.473Z,28.58
2017-04-03T07:25:43.069Z,28.11
2017-04-03T07:26:23.632Z,27.62
2017-04-03T07:27:04.220Z,27.82
2017-04-03T07:27:44.799Z,27.43
2017-04-03T07:28:25.391Z,27.43
2017-04-03T07:29:05.974Z,27.44
2017-04-03T07:29:46.560Z,27.34
2017-04-03T07:30:27.140Z,27.25
2017-04-03T07:31:07.727Z,27.33
2017-04-03T07:31:48.315Z,26.76
2017-04-03T07:32:28.900Z,26.58
2017-04-03T07:33:09.488Z,25.91
2017-04-03T07:33:50.075Z,25.14
2017-04-03T07:34:30.658Z,24.77
2017-04-03T07:35:11.238Z,24.08
2017-04-03T07:35:51.824Z,23.51
2017-04-03T07:36:32.407Z,23.52
2017-04-03T07:37:12.996Z,22.66
2017-04-03T07:37:53.583Z,22.46
2017-04-03T07:38:34.167Z,22.37
2017-04-03T07:39:14.749Z,22.08
2017-04-03T07:39:55.336Z,21.99
2017-04-03T07:40:35.924Z,21.6
2017-04-03T07:41:16.505Z,21.7
2017-04-03T07:41:57.092Z,21.8
2017-04-03T07:42:37.676Z,21.59
2017-04-03T07:43:18.263Z,22.46
2017-04-03T07:43:58.853Z,22.45
2017-04-03T07:44:39.431Z,22.64
2017-04-03T07:45:20.002Z,22.94
2017-04-03T07:46:00.591Z,22.64
2017-04-03T07:46:41.176Z,23.13
2017-04-03T07:47:21.761Z,23.22
2017-04-03T07:48:02.350Z,23.71
2017-04-03T07:48:42.934Z,23.62
2017-04-03T07:49:23.523Z,23.52
2017-04-03T07:50:04.108Z,22.75
2017-04-03T07:50:44.688Z,22.85
2017-04-03T07:51:25.276Z,22.95
2017-04-03T07:52:05.860Z,22.56
2017-04-03T07:52:46.449Z,22.27
2017-04-03T07:53:27.032Z,21.89
2017-04-03T07:54:07.625Z,21.89
2017-04-03T07:54:48.211Z,21.7
2017-04-03T07:55:28.796Z,21.6
2017-04-03T07:56:09.379Z,21.41
2017-04-03T07:56:49.962Z,21.42
2017-04-03T07:57:30.538Z,21.22
2017-04-03T07:58:11.126Z,21.32
2017-04-03T07:58:51.708Z,21.23
2017-04-03T07:59:32.300Z,21.03
2017-04-03T08:00:12.884Z,20.94
2017-04-03T08:00:53.474Z,21.12
2017-04-03T08:01:34.038Z,20.74
2017-04-03T08:02:29.302Z,20.64
2017-04-03T08:03:09.890Z,20.36
2017-04-03T08:03:50.477Z,20.17
2017-04-03T08:04:31.059Z,20.17
2017-04-03T08:05:11.646Z,20.07
2017-04-03T08:05:52.214Z,20.26
2017-04-03T08:06:32.806Z,20.74
2017-04-03T08:07:13.390Z,20.93
2017-04-03T08:07:53.981Z,20.93
2017-04-03T08:08:34.565Z,21.5
2017-04-03T08:09:15.153Z,21.41
2017-04-03T08:09:55.724Z,21.6
2017-04-03T08:10:36.311Z,21.5
2017-04-03T08:11:16.899Z,21.42
2017-04-03T08:11:57.477Z,21.12
2017-04-03T08:12:38.056Z,21.32
2017-04-03T08:13:18.641Z,20.94
2017-04-03T08:13:59.227Z,20.94
2017-04-03T08:14:39.809Z,20.45
2017-04-03T08:15:20.387Z,20.94
2017-04-03T08:16:00.980Z,20.94
2017-04-03T08:16:41.568Z,21.12
2017-04-03T08:17:22.153Z,21.22
2017-04-03T08:18:02.735Z,20.93
2017-04-03T08:18:43.318Z,21.31
2017-04-03T08:19:23.904Z,21.49
2017-04-03T08:20:04.495Z,21.6
2017-04-03T08:20:45.083Z,21.03
2017-04-03T08:21:25.667Z,21.03
2017-04-03T08:22:06.251Z,20.94
2017-04-03T08:23:01.536Z,20.95
2017-04-03T08:23:42.124Z,20.46
2017-04-03T08:24:22.710Z,20.26
2017-04-03T08:25:03.300Z,20.26
2017-04-03T08:25:43.886Z,20.07
2017-04-03T08:26:24.475Z,19.98
2017-04-03T08:27:05.057Z,19.69
2017-04-03T08:27:45.645Z,19.49
2017-04-03T08:28:26.234Z,19.59
2017-04-03T08:29:06.817Z,19.31
2017-04-03T08:29:47.406Z,19.02
2017-04-03T08:30:27.990Z,19.12
2017-04-03T08:31:08.569Z,18.93
2017-04-03T08:32:04.136Z,18.25
2017-04-03T08:32:44.730Z,18.44
2017-04-03T08:33:25.319Z,17.86
2017-04-03T08:34:05.906Z,18.05
2017-04-03T08:34:46.496Z,17.96
2017-04-03T08:35:27.074Z,17.96
2017-04-03T08:36:07.669Z,17.76
2017-04-03T08:36:48.258Z,17.76
2017-04-03T08:37:28.837Z,18.15
2017-04-03T08:38:09.429Z,18.43
2017-04-03T08:38:50.001Z,18.81
2017-04-03T08:39:30.591Z,19.1
2017-04-03T08:40:11.175Z,19.87
2017-04-03T08:40:51.761Z,20.06
2017-04-03T08:41:32.346Z,20.94
2017-04-03T08:42:12.936Z,20.93
2017-04-03T08:42:53.519Z,21.01
2017-04-03T08:43:34.098Z,21.39
2017-04-03T08:44:14.680Z,22.07
2017-04-03T08:44:55.261Z,22.55
2017-04-03T08:45:35.845Z,23.03
2017-04-03T08:46:16.430Z,23.32
2017-04-03T08:46:57.020Z,23.3
2017-04-03T08:47:37.609Z,24.18
2017-04-03T08:48:18.191Z,24.27
2017-04-03T08:48:58.782Z,24.74
2017-04-03T08:49:39.366Z,24.94
2017-04-03T08:50:19.952Z,25.51
2017-04-03T08:51:00.533Z,25.7
2017-04-03T08:51:41.110Z,26.28
2017-04-03T08:52:21.686Z,26.76
2017-04-03T08:53:02.279Z,27.14
2017-04-03T08:53:42.866Z,27.14
2017-04-03T08:54:23.454Z,27.51
2017-04-03T08:55:04.041Z,27.8
2017-04-03T08:55:44.631Z,27.61
2017-04-03T08:56:25.211Z,27.98
2017-04-03T08:57:05.808Z,28.18
2017-04-03T08:57:46.399Z,28.57
2017-04-03T08:58:26.989Z,28.76
2017-04-03T08:59:22.324Z,28.65
2017-04-03T09:00:02.906Z,29.24
2017-04-03T09:00:43.488Z,29.43
2017-04-03T09:01:24.078Z,29.62
2017-04-03T09:02:04.666Z,29.41
2017-04-03T09:02:45.254Z,29.41
2017-04-03T09:03:25.834Z,29.71
2017-04-03T09:04:06.418Z,29.9
2017-04-03T09:04:46.994Z,30
2017-04-03T09:05:27.594Z,30.19
2017-04-03T09:06:08.175Z,30.09
2017-04-03T09:06:48.773Z,30.19
2017-04-03T09:07:29.352Z,30.29
2017-04-03T09:08:09.942Z,30.47
2017-04-03T09:08:50.522Z,30.37